sensor_id;sensor_type;location;lat;lon;timestamp;temperature;humidity
18047;DHT22;9148;51.454;13.862;2024-03-02T00:00:06;8.60;99.90
18047;DHT22;9148;51.454;13.862;2024-03-02T00:02:40;8.60;99.90
18047;DHT22;9148;51.454;13.862;2024-03-02T00:05:14;8.50;99.90
18047;DHT22;9148;51.454;13.862;2024-03-02T00:07:42;8.60;99.90
18047;DHT22;9148;51.454;13.862;2024-03-02T00:10:11;8.60;99.90
18047;DHT22;9148;51.454;13.862;2024-03-02T00:12:38;8.70;99.90
18047;DHT22;9148;51.454;13.862;2024-03-02T00:17:56;8.60;99.90
18047;DHT22;9148;51.454;13.862;2024-03-02T00:20:22;8.60;99.90
18047;DHT22;9148;51.454;13.862;2024-03-02T00:22:49;8.70;99.90
18047;DHT22;9148;51.454;13.862;2024-03-02T00:25:16;8.70;99.90
18047;DHT22;9148;51.454;13.862;2024-03-02T00:27:42;8.70;99.90
18047;DHT22;9148;51.454;13.862;2024-03-02T00:33:21;8.80;99.90
18047;DHT22;9148;51.454;13.862;2024-03-02T00:35:47;8.80;99.90
18047;DHT22;9148;51.454;13.862;2024-03-02T00:38:14;8.80;99.90
18047;DHT22;9148;51.454;13.862;2024-03-02T00:40:41;8.90;99.90
18047;DHT22;9148;51.454;13.862;2024-03-02T00:46:12;8.90;99.90
18047;DHT22;9148;51.454;13.862;2024-03-02T00:48:48;8.90;99.90
18047;DHT22;9148;51.454;13.862;2024-03-02T00:51:18;9.00;99.90
18047;DHT22;9148;51.454;13.862;2024-03-02T00:53:43;8.90;99.90
18047;DHT22;9148;51.454;13.862;2024-03-02T00:56:10;8.90;99.90
18047;DHT22;9148;51.454;13.862;2024-03-02T00:58:37;8.90;99.90
18047;DHT22;9148;51.454;13.862;2024-03-02T01:01:03;8.90;99.90
18047;DHT22;9148;51.454;13.862;2024-03-02T01:03:31;8.90;99.90
18047;DHT22;9148;51.454;13.862;2024-03-02T01:05:57;9.00;99.90
18047;DHT22;9148;51.454;13.862;2024-03-02T01:08:23;9.00;99.90
18047;DHT22;9148;51.454;13.862;2024-03-02T01:10:49;8.90;99.90
18047;DHT22;9148;51.454;13.862;2024-03-02T01:13:15;9.00;99.90
18047;DHT22;9148;51.454;13.862;2024-03-02T01:15:41;9.00;99.90
18047;DHT22;9148;51.454;13.862;2024-03-02T01:18:06;9.00;99.90
18047;DHT22;9148;51.454;13.862;2024-03-02T01:20:32;9.00;99.90
18047;DHT22;9148;51.454;13.862;2024-03-02T01:22:57;9.00;99.90
18047;DHT22;9148;51.454;13.862;2024-03-02T01:25:23;9.00;99.90
18047;DHT22;9148;51.454;13.862;2024-03-02T01:27:49;9.00;99.90
18047;DHT22;9148;51.454;13.862;2024-03-02T01:30:14;9.00;99.90
18047;DHT22;9148;51.454;13.862;2024-03-02T01:32:40;9.10;99.90
18047;DHT22;9148;51.454;13.862;2024-03-02T01:35:06;9.10;99.90
18047;DHT22;9148;51.454;13.862;2024-03-02T01:37:37;9.10;99.90
18047;DHT22;9148;51.454;13.862;2024-03-02T01:40:02;9.10;99.90
18047;DHT22;9148;51.454;13.862;2024-03-02T01:42:35;9.10;99.90
18047;DHT22;9148;51.454;13.862;2024-03-02T01:45:08;9.10;99.90
18047;DHT22;9148;51.454;13.862;2024-03-02T01:47:34;9.50;99.90
18047;DHT22;9148;51.454;13.862;2024-03-02T01:50:00;9.10;99.90
18047;DHT22;9148;51.454;13.862;2024-03-02T01:52:27;9.10;99.90
18047;DHT22;9148;51.454;13.862;2024-03-02T01:54:53;9.20;99.90
18047;DHT22;9148;51.454;13.862;2024-03-02T01:57:19;9.20;99.90
18047;DHT22;9148;51.454;13.862;2024-03-02T01:59:45;9.10;99.90
18047;DHT22;9148;51.454;13.862;2024-03-02T02:02:14;9.20;99.90
18047;DHT22;9148;51.454;13.862;2024-03-02T02:04:40;9.20;99.90
18047;DHT22;9148;51.454;13.862;2024-03-02T02:07:05;9.20;99.90
18047;DHT22;9148;51.454;13.862;2024-03-02T02:09:32;9.20;99.90
18047;DHT22;9148;51.454;13.862;2024-03-02T02:11:57;9.20;99.90
18047;DHT22;9148;51.454;13.862;2024-03-02T02:14:23;9.10;99.90
18047;DHT22;9148;51.454;13.862;2024-03-02T02:16:49;9.10;99.90
18047;DHT22;9148;51.454;13.862;2024-03-02T02:19:14;9.10;99.90
18047;DHT22;9148;51.454;13.862;2024-03-02T02:21:44;9.00;99.90
18047;DHT22;9148;51.454;13.862;2024-03-02T02:24:09;9.00;99.90
18047;DHT22;9148;51.454;13.862;2024-03-02T02:26:35;9.00;99.90
18047;DHT22;9148;51.454;13.862;2024-03-02T02:29:01;9.00;99.90
18047;DHT22;9148;51.454;13.862;2024-03-02T02:31:35;9.00;99.90
18047;DHT22;9148;51.454;13.862;2024-03-02T02:34:02;9.00;99.90
18047;DHT22;9148;51.454;13.862;2024-03-02T02:36:27;9.00;99.90
18047;DHT22;9148;51.454;13.862;2024-03-02T02:38:53;9.10;99.90
18047;DHT22;9148;51.454;13.862;2024-03-02T02:41:19;9.10;99.90
18047;DHT22;9148;51.454;13.862;2024-03-02T02:43:44;9.10;99.90
18047;DHT22;9148;51.454;13.862;2024-03-02T02:46:10;9.20;99.90
18047;DHT22;9148;51.454;13.862;2024-03-02T02:48:36;9.20;99.90
18047;DHT22;9148;51.454;13.862;2024-03-02T02:51:01;9.20;99.90
18047;DHT22;9148;51.454;13.862;2024-03-02T02:53:27;9.20;99.90
18047;DHT22;9148;51.454;13.862;2024-03-02T02:55:53;9.20;99.90
18047;DHT22;9148;51.454;13.862;2024-03-02T02:58:18;9.20;99.90
18047;DHT22;9148;51.454;13.862;2024-03-02T03:00:44;9.20;99.90
18047;DHT22;9148;51.454;13.862;2024-03-02T03:03:10;9.30;99.90
18047;DHT22;9148;51.454;13.862;2024-03-02T03:05:35;9.20;99.90
18047;DHT22;9148;51.454;13.862;2024-03-02T03:08:01;9.20;99.90
18047;DHT22;9148;51.454;13.862;2024-03-02T03:10:27;9.00;99.90
18047;DHT22;9148;51.454;13.862;2024-03-02T03:12:53;9.20;99.90
18047;DHT22;9148;51.454;13.862;2024-03-02T03:15:21;9.10;99.90
18047;DHT22;9148;51.454;13.862;2024-03-02T03:17:46;9.20;99.90
18047;DHT22;9148;51.454;13.862;2024-03-02T03:20:12;9.10;99.90
18047;DHT22;9148;51.454;13.862;2024-03-02T03:22:39;9.10;99.90
18047;DHT22;9148;51.454;13.862;2024-03-02T03:25:05;9.20;99.90
18047;DHT22;9148;51.454;13.862;2024-03-02T03:27:32;9.20;99.90
18047;DHT22;9148;51.454;13.862;2024-03-02T03:29:57;9.30;99.90
18047;DHT22;9148;51.454;13.862;2024-03-02T03:32:23;9.20;99.90
18047;DHT22;9148;51.454;13.862;2024-03-02T03:34:49;9.20;99.90
18047;DHT22;9148;51.454;13.862;2024-03-02T03:37:14;9.30;99.90
18047;DHT22;9148;51.454;13.862;2024-03-02T03:39:40;9.30;99.90
18047;DHT22;9148;51.454;13.862;2024-03-02T03:42:06;9.20;99.90
18047;DHT22;9148;51.454;13.862;2024-03-02T03:44:32;8.90;99.90
18047;DHT22;9148;51.454;13.862;2024-03-02T03:46:58;9.20;99.90
18047;DHT22;9148;51.454;13.862;2024-03-02T03:49:24;9.20;99.90
18047;DHT22;9148;51.454;13.862;2024-03-02T03:51:50;9.10;99.90
18047;DHT22;9148;51.454;13.862;2024-03-02T03:54:15;9.10;99.90
18047;DHT22;9148;51.454;13.862;2024-03-02T03:56:41;9.10;99.90
18047;DHT22;9148;51.454;13.862;2024-03-02T03:59:07;9.10;99.90
18047;DHT22;9148;51.454;13.862;2024-03-02T04:01:32;9.10;99.90
18047;DHT22;9148;51.454;13.862;2024-03-02T04:03:59;9.10;99.90
18047;DHT22;9148;51.454;13.862;2024-03-02T04:06:25;9.10;99.90
18047;DHT22;9148;51.454;13.862;2024-03-02T04:08:50;9.00;99.90
18047;DHT22;9148;51.454;13.862;2024-03-02T04:11:16;9.10;99.90
18047;DHT22;9148;51.454;13.862;2024-03-02T04:13:42;9.10;99.90
18047;DHT22;9148;51.454;13.862;2024-03-02T04:16:07;9.10;99.90
18047;DHT22;9148;51.454;13.862;2024-03-02T04:18:33;9.10;99.90
18047;DHT22;9148;51.454;13.862;2024-03-02T04:20:58;9.10;99.90
18047;DHT22;9148;51.454;13.862;2024-03-02T04:23:25;9.10;99.90
18047;DHT22;9148;51.454;13.862;2024-03-02T04:25:51;9.10;99.90
18047;DHT22;9148;51.454;13.862;2024-03-02T04:28:17;9.10;99.90
18047;DHT22;9148;51.454;13.862;2024-03-02T04:30:43;9.10;99.90
18047;DHT22;9148;51.454;13.862;2024-03-02T04:33:08;9.10;99.90
18047;DHT22;9148;51.454;13.862;2024-03-02T04:35:36;9.10;99.90
18047;DHT22;9148;51.454;13.862;2024-03-02T04:38:02;9.10;99.90
18047;DHT22;9148;51.454;13.862;2024-03-02T04:40:27;9.10;99.90
18047;DHT22;9148;51.454;13.862;2024-03-02T04:42:53;9.10;99.90
18047;DHT22;9148;51.454;13.862;2024-03-02T04:45:19;9.10;99.90
18047;DHT22;9148;51.454;13.862;2024-03-02T04:47:45;9.00;99.90
18047;DHT22;9148;51.454;13.862;2024-03-02T04:50:10;9.10;99.90
18047;DHT22;9148;51.454;13.862;2024-03-02T04:52:36;9.10;99.90
18047;DHT22;9148;51.454;13.862;2024-03-02T04:55:02;9.10;99.90
18047;DHT22;9148;51.454;13.862;2024-03-02T04:57:35;9.10;99.90
18047;DHT22;9148;51.454;13.862;2024-03-02T05:00:01;9.10;99.90
18047;DHT22;9148;51.454;13.862;2024-03-02T05:02:26;9.00;99.90
18047;DHT22;9148;51.454;13.862;2024-03-02T05:04:52;9.10;99.90
18047;DHT22;9148;51.454;13.862;2024-03-02T05:07:18;9.00;99.90
18047;DHT22;9148;51.454;13.862;2024-03-02T05:09:43;9.00;99.90
18047;DHT22;9148;51.454;13.862;2024-03-02T05:12:10;9.00;99.90
18047;DHT22;9148;51.454;13.862;2024-03-02T05:14:54;9.00;99.90
18047;DHT22;9148;51.454;13.862;2024-03-02T05:17:21;9.00;99.90
18047;DHT22;9148;51.454;13.862;2024-03-02T05:19:46;9.00;99.90
18047;DHT22;9148;51.454;13.862;2024-03-02T05:22:12;8.90;99.90
18047;DHT22;9148;51.454;13.862;2024-03-02T05:24:38;9.00;99.90
18047;DHT22;9148;51.454;13.862;2024-03-02T05:27:03;8.90;99.90
18047;DHT22;9148;51.454;13.862;2024-03-02T05:29:29;9.00;99.90
18047;DHT22;9148;51.454;13.862;2024-03-02T05:31:55;8.90;99.90
18047;DHT22;9148;51.454;13.862;2024-03-02T05:34:21;8.90;99.90
18047;DHT22;9148;51.454;13.862;2024-03-02T05:36:46;8.80;99.90
18047;DHT22;9148;51.454;13.862;2024-03-02T05:39:12;8.90;99.90
18047;DHT22;9148;51.454;13.862;2024-03-02T05:41:38;8.90;99.90
18047;DHT22;9148;51.454;13.862;2024-03-02T05:44:04;8.90;99.90
18047;DHT22;9148;51.454;13.862;2024-03-02T05:46:29;8.90;99.90
18047;DHT22;9148;51.454;13.862;2024-03-02T05:48:55;8.90;99.90
18047;DHT22;9148;51.454;13.862;2024-03-02T05:51:21;9.00;99.90
18047;DHT22;9148;51.454;13.862;2024-03-02T05:53:47;9.00;99.90
18047;DHT22;9148;51.454;13.862;2024-03-02T05:56:12;9.00;99.90
18047;DHT22;9148;51.454;13.862;2024-03-02T05:58:38;9.00;99.90
18047;DHT22;9148;51.454;13.862;2024-03-02T06:01:23;9.10;99.90
18047;DHT22;9148;51.454;13.862;2024-03-02T06:03:56;9.10;99.90
18047;DHT22;9148;51.454;13.862;2024-03-02T06:06:22;9.20;99.90
18047;DHT22;9148;51.454;13.862;2024-03-02T06:08:48;9.10;99.90
18047;DHT22;9148;51.454;13.862;2024-03-02T06:11:14;9.20;99.90
18047;DHT22;9148;51.454;13.862;2024-03-02T06:13:40;9.10;99.90
18047;DHT22;9148;51.454;13.862;2024-03-02T06:16:05;8.90;99.90
18047;DHT22;9148;51.454;13.862;2024-03-02T06:18:31;9.10;99.90
18047;DHT22;9148;51.454;13.862;2024-03-02T06:20:57;9.10;99.90
18047;DHT22;9148;51.454;13.862;2024-03-02T06:23:22;9.10;99.90
18047;DHT22;9148;51.454;13.862;2024-03-02T06:25:48;9.10;99.90
18047;DHT22;9148;51.454;13.862;2024-03-02T06:28:14;9.10;99.90
18047;DHT22;9148;51.454;13.862;2024-03-02T06:30:42;9.10;99.90
18047;DHT22;9148;51.454;13.862;2024-03-02T06:33:09;9.10;99.90
18047;DHT22;9148;51.454;13.862;2024-03-02T06:35:35;9.10;99.90
18047;DHT22;9148;51.454;13.862;2024-03-02T06:38:01;9.00;99.90
18047;DHT22;9148;51.454;13.862;2024-03-02T06:40:27;9.00;99.90
18047;DHT22;9148;51.454;13.862;2024-03-02T06:42:52;9.00;99.90
18047;DHT22;9148;51.454;13.862;2024-03-02T06:45:18;9.10;99.90
18047;DHT22;9148;51.454;13.862;2024-03-02T06:47:44;9.00;99.90
18047;DHT22;9148;51.454;13.862;2024-03-02T06:50:10;9.10;99.90
18047;DHT22;9148;51.454;13.862;2024-03-02T06:52:35;9.10;99.90
18047;DHT22;9148;51.454;13.862;2024-03-02T06:55:02;9.10;99.90
18047;DHT22;9148;51.454;13.862;2024-03-02T06:57:27;9.10;99.90
18047;DHT22;9148;51.454;13.862;2024-03-02T06:59:53;9.10;99.90
18047;DHT22;9148;51.454;13.862;2024-03-02T07:02:26;9.20;99.90
18047;DHT22;9148;51.454;13.862;2024-03-02T07:04:52;9.20;99.90
18047;DHT22;9148;51.454;13.862;2024-03-02T07:07:19;9.20;99.90
18047;DHT22;9148;51.454;13.862;2024-03-02T07:09:45;9.20;99.90
18047;DHT22;9148;51.454;13.862;2024-03-02T07:12:11;9.20;99.90
18047;DHT22;9148;51.454;13.862;2024-03-02T07:14:36;9.20;99.90
18047;DHT22;9148;51.454;13.862;2024-03-02T07:17:20;9.20;99.90
18047;DHT22;9148;51.454;13.862;2024-03-02T07:19:46;9.20;99.90
18047;DHT22;9148;51.454;13.862;2024-03-02T07:22:12;9.20;99.90
18047;DHT22;9148;51.454;13.862;2024-03-02T07:24:41;9.10;99.90
18047;DHT22;9148;51.454;13.862;2024-03-02T07:27:12;9.20;99.90
18047;DHT22;9148;51.454;13.862;2024-03-02T07:29:39;9.20;99.90
18047;DHT22;9148;51.454;13.862;2024-03-02T07:32:06;9.20;99.90
18047;DHT22;9148;51.454;13.862;2024-03-02T07:34:33;9.20;99.90
18047;DHT22;9148;51.454;13.862;2024-03-02T07:36:59;9.20;99.90
18047;DHT22;9148;51.454;13.862;2024-03-02T07:39:25;9.20;99.90
18047;DHT22;9148;51.454;13.862;2024-03-02T07:41:51;9.20;99.90
18047;DHT22;9148;51.454;13.862;2024-03-02T07:44:17;9.10;99.90
18047;DHT22;9148;51.454;13.862;2024-03-02T07:46:44;9.20;99.90
18047;DHT22;9148;51.454;13.862;2024-03-02T07:49:12;9.20;99.90
18047;DHT22;9148;51.454;13.862;2024-03-02T07:51:39;9.10;99.90
18047;DHT22;9148;51.454;13.862;2024-03-02T07:54:05;9.20;99.90
18047;DHT22;9148;51.454;13.862;2024-03-02T07:56:31;9.20;99.90
18047;DHT22;9148;51.454;13.862;2024-03-02T07:58:56;9.20;99.90
18047;DHT22;9148;51.454;13.862;2024-03-02T08:01:27;9.20;99.90
18047;DHT22;9148;51.454;13.862;2024-03-02T08:03:54;9.30;99.90
18047;DHT22;9148;51.454;13.862;2024-03-02T08:06:22;9.30;99.90
18047;DHT22;9148;51.454;13.862;2024-03-02T08:08:48;9.30;99.90
18047;DHT22;9148;51.454;13.862;2024-03-02T08:11:13;9.30;99.90
18047;DHT22;9148;51.454;13.862;2024-03-02T08:13:39;9.30;99.90
18047;DHT22;9148;51.454;13.862;2024-03-02T08:16:05;9.30;99.90
18047;DHT22;9148;51.454;13.862;2024-03-02T08:18:34;9.10;99.90
18047;DHT22;9148;51.454;13.862;2024-03-02T08:21:00;9.40;99.90
18047;DHT22;9148;51.454;13.862;2024-03-02T08:23:26;9.40;99.90
18047;DHT22;9148;51.454;13.862;2024-03-02T08:25:51;9.40;99.90
18047;DHT22;9148;51.454;13.862;2024-03-02T08:28:17;9.40;99.90
18047;DHT22;9148;51.454;13.862;2024-03-02T08:30:43;9.40;99.90
18047;DHT22;9148;51.454;13.862;2024-03-02T08:33:08;9.40;99.90
18047;DHT22;9148;51.454;13.862;2024-03-02T08:35:34;9.40;99.90
18047;DHT22;9148;51.454;13.862;2024-03-02T08:38:02;9.50;99.90
18047;DHT22;9148;51.454;13.862;2024-03-02T08:40:28;9.50;99.90
18047;DHT22;9148;51.454;13.862;2024-03-02T08:42:54;9.40;99.90
18047;DHT22;9148;51.454;13.862;2024-03-02T08:45:20;9.50;99.90
18047;DHT22;9148;51.454;13.862;2024-03-02T08:47:46;9.50;99.90
18047;DHT22;9148;51.454;13.862;2024-03-02T08:50:12;9.30;99.90
18047;DHT22;9148;51.454;13.862;2024-03-02T08:52:38;9.60;99.90
18047;DHT22;9148;51.454;13.862;2024-03-02T08:55:04;9.60;99.90
18047;DHT22;9148;51.454;13.862;2024-03-02T08:57:31;9.60;99.90
18047;DHT22;9148;51.454;13.862;2024-03-02T08:59:57;9.70;99.90
18047;DHT22;9148;51.454;13.862;2024-03-02T09:02:23;9.60;99.90
18047;DHT22;9148;51.454;13.862;2024-03-02T09:04:49;9.70;99.90
18047;DHT22;9148;51.454;13.862;2024-03-02T09:07:15;9.80;99.90
18047;DHT22;9148;51.454;13.862;2024-03-02T09:09:40;9.80;99.90
18047;DHT22;9148;51.454;13.862;2024-03-02T09:12:07;9.80;99.90
18047;DHT22;9148;51.454;13.862;2024-03-02T09:14:33;10.50;99.90
18047;DHT22;9148;51.454;13.862;2024-03-02T09:16:59;9.90;99.90
18047;DHT22;9148;51.454;13.862;2024-03-02T09:19:24;10.00;99.90
18047;DHT22;9148;51.454;13.862;2024-03-02T09:21:50;10.00;99.90
18047;DHT22;9148;51.454;13.862;2024-03-02T09:24:16;10.10;99.90
18047;DHT22;9148;51.454;13.862;2024-03-02T09:26:41;10.20;99.90
18047;DHT22;9148;51.454;13.862;2024-03-02T09:29:07;10.20;99.90
18047;DHT22;9148;51.454;13.862;2024-03-02T09:31:33;10.30;99.90
18047;DHT22;9148;51.454;13.862;2024-03-02T09:33:58;10.30;99.90
18047;DHT22;9148;51.454;13.862;2024-03-02T09:36:24;10.40;99.90
18047;DHT22;9148;51.454;13.862;2024-03-02T09:38:50;10.40;99.90
18047;DHT22;9148;51.454;13.862;2024-03-02T09:41:15;10.40;99.90
18047;DHT22;9148;51.454;13.862;2024-03-02T09:43:41;10.50;99.90
18047;DHT22;9148;51.454;13.862;2024-03-02T09:46:09;10.50;99.90
18047;DHT22;9148;51.454;13.862;2024-03-02T09:48:35;10.60;99.90
18047;DHT22;9148;51.454;13.862;2024-03-02T09:51:01;10.60;99.90
18047;DHT22;9148;51.454;13.862;2024-03-02T09:53:31;10.60;99.90
18047;DHT22;9148;51.454;13.862;2024-03-02T09:55:59;10.70;99.90
18047;DHT22;9148;51.454;13.862;2024-03-02T09:58:25;10.70;99.90
18047;DHT22;9148;51.454;13.862;2024-03-02T10:00:50;10.80;99.90
18047;DHT22;9148;51.454;13.862;2024-03-02T10:03:18;10.80;99.90
18047;DHT22;9148;51.454;13.862;2024-03-02T10:05:45;10.90;99.90
18047;DHT22;9148;51.454;13.862;2024-03-02T10:08:10;10.90;99.90
18047;DHT22;9148;51.454;13.862;2024-03-02T10:10:37;10.90;99.90
18047;DHT22;9148;51.454;13.862;2024-03-02T10:13:11;11.00;99.90
18047;DHT22;9148;51.454;13.862;2024-03-02T10:15:38;11.10;99.90
18047;DHT22;9148;51.454;13.862;2024-03-02T10:18:11;11.20;99.90
18047;DHT22;9148;51.454;13.862;2024-03-02T10:20:38;11.30;99.90
18047;DHT22;9148;51.454;13.862;2024-03-02T10:23:15;11.40;99.90
18047;DHT22;9148;51.454;13.862;2024-03-02T10:25:42;11.50;99.90
18047;DHT22;9148;51.454;13.862;2024-03-02T10:28:08;11.70;99.90
18047;DHT22;9148;51.454;13.862;2024-03-02T10:30:34;12.00;99.90
18047;DHT22;9148;51.454;13.862;2024-03-02T10:33:01;12.10;99.90
18047;DHT22;9148;51.454;13.862;2024-03-02T10:35:28;12.20;99.90
18047;DHT22;9148;51.454;13.862;2024-03-02T10:37:54;12.30;99.90
18047;DHT22;9148;51.454;13.862;2024-03-02T10:40:23;12.40;99.90
18047;DHT22;9148;51.454;13.862;2024-03-02T10:42:50;12.50;99.90
18047;DHT22;9148;51.454;13.862;2024-03-02T10:45:19;12.70;99.90
18047;DHT22;9148;51.454;13.862;2024-03-02T10:47:47;12.80;99.90
18047;DHT22;9148;51.454;13.862;2024-03-02T10:50:13;13.10;99.90
18047;DHT22;9148;51.454;13.862;2024-03-02T10:52:39;13.30;99.90
18047;DHT22;9148;51.454;13.862;2024-03-02T10:55:06;13.50;99.90
18047;DHT22;9148;51.454;13.862;2024-03-02T10:57:53;13.70;99.90
18047;DHT22;9148;51.454;13.862;2024-03-02T11:00:24;13.90;99.90
18047;DHT22;9148;51.454;13.862;2024-03-02T11:03:02;14.10;99.90
18047;DHT22;9148;51.454;13.862;2024-03-02T11:05:38;14.20;99.90
18047;DHT22;9148;51.454;13.862;2024-03-02T11:08:11;14.30;99.90
18047;DHT22;9148;51.454;13.862;2024-03-02T11:10:51;14.40;99.90
18047;DHT22;9148;51.454;13.862;2024-03-02T11:13:22;14.50;99.90
18047;DHT22;9148;51.454;13.862;2024-03-02T11:15:55;14.60;99.90
18047;DHT22;9148;51.454;13.862;2024-03-02T11:18:22;14.60;99.90
18047;DHT22;9148;51.454;13.862;2024-03-02T11:20:51;14.80;99.90
18047;DHT22;9148;51.454;13.862;2024-03-02T11:23:17;15.00;99.90
18047;DHT22;9148;51.454;13.862;2024-03-02T11:25:42;15.00;99.90
18047;DHT22;9148;51.454;13.862;2024-03-02T11:28:08;15.10;99.90
18047;DHT22;9148;51.454;13.862;2024-03-02T11:33:07;15.40;99.90
18047;DHT22;9148;51.454;13.862;2024-03-02T11:35:43;15.60;99.90
18047;DHT22;9148;51.454;13.862;2024-03-02T11:38:13;15.80;99.90
18047;DHT22;9148;51.454;13.862;2024-03-02T11:40:40;16.10;99.90
18047;DHT22;9148;51.454;13.862;2024-03-02T11:43:06;16.10;99.90
18047;DHT22;9148;51.454;13.862;2024-03-02T11:45:33;16.10;99.90
18047;DHT22;9148;51.454;13.862;2024-03-02T11:47:59;16.30;99.90
18047;DHT22;9148;51.454;13.862;2024-03-02T11:50:36;16.30;98.10
18047;DHT22;9148;51.454;13.862;2024-03-02T11:53:07;16.20;97.80
18047;DHT22;9148;51.454;13.862;2024-03-02T11:55:38;16.00;98.60
18047;DHT22;9148;51.454;13.862;2024-03-02T11:58:05;15.80;98.00
18047;DHT22;9148;51.454;13.862;2024-03-02T12:00:32;15.70;98.20
18047;DHT22;9148;51.454;13.862;2024-03-02T12:05:30;15.80;97.90
18047;DHT22;9148;51.454;13.862;2024-03-02T12:07:58;15.80;97.80
18047;DHT22;9148;51.454;13.862;2024-03-02T12:10:25;15.80;97.90
18047;DHT22;9148;51.454;13.862;2024-03-02T12:12:59;15.60;98.50
18047;DHT22;9148;51.454;13.862;2024-03-02T12:15:30;15.70;98.40
18047;DHT22;9148;51.454;13.862;2024-03-02T12:17:57;15.70;98.10
18047;DHT22;9148;51.454;13.862;2024-03-02T12:20:24;15.60;97.80
18047;DHT22;9148;51.454;13.862;2024-03-02T12:22:52;15.50;97.90
18047;DHT22;9148;51.454;13.862;2024-03-02T12:25:24;15.40;98.20
18047;DHT22;9148;51.454;13.862;2024-03-02T12:27:51;15.30;98.50
18047;DHT22;9148;51.454;13.862;2024-03-02T12:30:19;15.20;99.10
18047;DHT22;9148;51.454;13.862;2024-03-02T12:32:45;15.20;98.90
18047;DHT22;9148;51.454;13.862;2024-03-02T12:35:12;15.20;98.70
18047;DHT22;9148;51.454;13.862;2024-03-02T12:37:44;15.10;99.40
18047;DHT22;9148;51.454;13.862;2024-03-02T12:40:12;15.20;98.40
18047;DHT22;9148;51.454;13.862;2024-03-02T12:42:39;15.20;98.30
18047;DHT22;9148;51.454;13.862;2024-03-02T12:45:06;15.00;98.80
18047;DHT22;9148;51.454;13.862;2024-03-02T12:47:33;14.90;99.60
18047;DHT22;9148;51.454;13.862;2024-03-02T12:49:59;14.80;99.70
18047;DHT22;9148;51.454;13.862;2024-03-02T12:52:26;14.80;99.90
18047;DHT22;9148;51.454;13.862;2024-03-02T12:54:51;14.70;99.90
18047;DHT22;9148;51.454;13.862;2024-03-02T12:57:20;14.70;99.80
18047;DHT22;9148;51.454;13.862;2024-03-02T12:59:47;14.60;99.40
18047;DHT22;9148;51.454;13.862;2024-03-02T13:02:20;14.50;99.90
18047;DHT22;9148;51.454;13.862;2024-03-02T13:04:53;14.40;99.40
18047;DHT22;9148;51.454;13.862;2024-03-02T13:07:23;14.30;99.40
18047;DHT22;9148;51.454;13.862;2024-03-02T13:09:50;14.20;99.60
18047;DHT22;9148;51.454;13.862;2024-03-02T13:12:16;14.10;99.90
18047;DHT22;9148;51.454;13.862;2024-03-02T13:14:42;14.10;99.90
18047;DHT22;9148;51.454;13.862;2024-03-02T13:17:09;14.00;99.90
18047;DHT22;9148;51.454;13.862;2024-03-02T13:19:35;13.90;99.90
18047;DHT22;9148;51.454;13.862;2024-03-02T13:22:00;13.90;99.90
18047;DHT22;9148;51.454;13.862;2024-03-02T13:24:30;13.90;99.90
18047;DHT22;9148;51.454;13.862;2024-03-02T13:26:56;13.90;99.90
18047;DHT22;9148;51.454;13.862;2024-03-02T13:29:23;13.90;99.90
18047;DHT22;9148;51.454;13.862;2024-03-02T13:31:49;13.80;99.90
18047;DHT22;9148;51.454;13.862;2024-03-02T13:34:15;13.80;99.90
18047;DHT22;9148;51.454;13.862;2024-03-02T13:36:41;13.90;99.90
18047;DHT22;9148;51.454;13.862;2024-03-02T13:39:07;13.80;99.90
18047;DHT22;9148;51.454;13.862;2024-03-02T13:41:35;13.90;99.90
18047;DHT22;9148;51.454;13.862;2024-03-02T13:44:01;13.80;99.90
18047;DHT22;9148;51.454;13.862;2024-03-02T13:46:28;13.70;99.90
18047;DHT22;9148;51.454;13.862;2024-03-02T13:48:54;13.70;99.90
18047;DHT22;9148;51.454;13.862;2024-03-02T13:51:20;13.70;99.90
18047;DHT22;9148;51.454;13.862;2024-03-02T13:53:45;13.70;99.90
18047;DHT22;9148;51.454;13.862;2024-03-02T13:56:11;13.60;99.90
18047;DHT22;9148;51.454;13.862;2024-03-02T13:58:37;13.60;99.90
18047;DHT22;9148;51.454;13.862;2024-03-02T14:01:04;13.60;99.90
18047;DHT22;9148;51.454;13.862;2024-03-02T14:03:30;13.50;99.90
18047;DHT22;9148;51.454;13.862;2024-03-02T14:05:56;13.40;99.90
18047;DHT22;9148;51.454;13.862;2024-03-02T14:08:22;13.40;99.90
18047;DHT22;9148;51.454;13.862;2024-03-02T14:10:48;13.30;99.90
18047;DHT22;9148;51.454;13.862;2024-03-02T14:13:14;13.20;99.90
18047;DHT22;9148;51.454;13.862;2024-03-02T14:15:41;13.20;99.90
18047;DHT22;9148;51.454;13.862;2024-03-02T14:18:07;13.10;99.90
18047;DHT22;9148;51.454;13.862;2024-03-02T14:20:35;13.10;99.90
18047;DHT22;9148;51.454;13.862;2024-03-02T14:23:01;13.10;99.90
18047;DHT22;9148;51.454;13.862;2024-03-02T14:25:28;13.00;99.90
18047;DHT22;9148;51.454;13.862;2024-03-02T14:27:57;13.00;99.90
18047;DHT22;9148;51.454;13.862;2024-03-02T14:30:23;12.90;99.90
18047;DHT22;9148;51.454;13.862;2024-03-02T14:32:49;12.90;99.90
18047;DHT22;9148;51.454;13.862;2024-03-02T14:35:15;12.90;99.90
18047;DHT22;9148;51.454;13.862;2024-03-02T14:37:40;12.80;99.90
18047;DHT22;9148;51.454;13.862;2024-03-02T14:40:07;12.80;99.90
18047;DHT22;9148;51.454;13.862;2024-03-02T14:42:35;12.80;99.90
18047;DHT22;9148;51.454;13.862;2024-03-02T14:45:01;12.70;99.90
18047;DHT22;9148;51.454;13.862;2024-03-02T14:47:31;12.70;99.90
18047;DHT22;9148;51.454;13.862;2024-03-02T14:49:59;12.60;99.90
18047;DHT22;9148;51.454;13.862;2024-03-02T14:52:24;12.60;99.90
18047;DHT22;9148;51.454;13.862;2024-03-02T14:54:50;12.60;99.90
18047;DHT22;9148;51.454;13.862;2024-03-02T14:57:16;12.60;99.90
18047;DHT22;9148;51.454;13.862;2024-03-02T14:59:42;12.60;99.90
18047;DHT22;9148;51.454;13.862;2024-03-02T15:02:08;12.60;99.90
18047;DHT22;9148;51.454;13.862;2024-03-02T15:04:34;12.60;99.90
18047;DHT22;9148;51.454;13.862;2024-03-02T15:07:02;12.60;99.90
18047;DHT22;9148;51.454;13.862;2024-03-02T15:09:29;12.60;99.90
18047;DHT22;9148;51.454;13.862;2024-03-02T15:11:54;12.40;99.90
18047;DHT22;9148;51.454;13.862;2024-03-02T15:14:20;12.40;99.90
18047;DHT22;9148;51.454;13.862;2024-03-02T15:16:46;12.40;99.90
18047;DHT22;9148;51.454;13.862;2024-03-02T15:19:11;12.40;99.90
18047;DHT22;9148;51.454;13.862;2024-03-02T15:21:37;12.30;99.90
18047;DHT22;9148;51.454;13.862;2024-03-02T15:24:03;12.30;99.90
18047;DHT22;9148;51.454;13.862;2024-03-02T15:26:29;12.30;99.90
18047;DHT22;9148;51.454;13.862;2024-03-02T15:28:55;12.50;99.90
18047;DHT22;9148;51.454;13.862;2024-03-02T15:31:22;12.20;99.90
18047;DHT22;9148;51.454;13.862;2024-03-02T15:33:48;12.20;99.90
18047;DHT22;9148;51.454;13.862;2024-03-02T15:36:15;12.20;99.90
18047;DHT22;9148;51.454;13.862;2024-03-02T15:38:40;12.20;99.90
18047;DHT22;9148;51.454;13.862;2024-03-02T15:41:06;12.20;99.90
18047;DHT22;9148;51.454;13.862;2024-03-02T15:43:32;12.10;99.90
18047;DHT22;9148;51.454;13.862;2024-03-02T15:45:58;12.20;99.90
18047;DHT22;9148;51.454;13.862;2024-03-02T15:48:23;12.10;99.90
18047;DHT22;9148;51.454;13.862;2024-03-02T15:50:49;12.10;99.90